createdAt,value
2018-06-15T00:00:15.026Z,13.10
2018-06-15T00:02:48.605Z,11.80
2018-06-15T00:05:17.262Z,11.97
2018-06-15T00:07:45.840Z,10.20
2018-06-15T00:10:14.466Z,10.43
2018-06-15T00:12:43.057Z,10.47
2018-06-15T00:15:11.712Z,10.77
2018-06-15T00:17:40.322Z,10.90
2018-06-15T00:20:08.959Z,11.43
2018-06-15T00:22:37.563Z,11.93
2018-06-15T00:25:06.254Z,11.07
2018-06-15T00:27:34.846Z,10.60
2018-06-15T00:30:05.028Z,10.60
2018-06-15T00:32:33.637Z,10.73
2018-06-15T00:35:02.305Z,12.33
2018-06-15T00:37:30.927Z,12.53
2018-06-15T00:39:59.514Z,10.57
2018-06-15T00:42:28.121Z,11.93
2018-06-15T00:44:56.757Z,11.83
2018-06-15T00:47:25.360Z,12.50
2018-06-15T00:49:53.986Z,13.60
2018-06-15T00:52:22.574Z,12.40
2018-06-15T00:54:51.143Z,12.53
2018-06-15T00:57:30.785Z,10.90
2018-06-15T00:59:59.400Z,9.77
2018-06-15T01:02:27.970Z,9.30
2018-06-15T01:04:56.551Z,12.17
2018-06-15T01:07:25.149Z,10.10
2018-06-15T01:09:53.759Z,11.27
2018-06-15T01:12:22.353Z,9.97
2018-06-15T01:14:50.923Z,10.17
2018-06-15T01:17:19.498Z,10.23
2018-06-15T01:19:48.110Z,9.20
2018-06-15T01:22:16.671Z,9.80
2018-06-15T01:24:45.248Z,10.00
2018-06-15T01:27:13.850Z,9.70
2018-06-15T01:29:42.414Z,10.33
2018-06-15T01:32:11.840Z,11.27
2018-06-15T01:34:40.448Z,8.83
2018-06-15T01:37:09.078Z,8.83
2018-06-15T01:39:37.657Z,9.67
2018-06-15T01:42:06.319Z,10.23
2018-06-15T01:44:34.902Z,9.07
2018-06-15T01:47:03.472Z,9.30
2018-06-15T01:49:32.056Z,8.87
2018-06-15T01:52:00.682Z,10.70
2018-06-15T01:54:29.255Z,10.63
2018-06-15T01:56:57.886Z,8.67
2018-06-15T01:59:26.471Z,9.37
2018-06-15T02:01:55.024Z,9.93
2018-06-15T02:04:23.629Z,12.13
2018-06-15T02:06:52.195Z,9.97
2018-06-15T02:09:20.830Z,11.63
2018-06-15T02:11:49.426Z,10.07
2018-06-15T02:14:17.991Z,13.83
2018-06-15T02:16:46.566Z,10.60
2018-06-15T02:19:15.162Z,10.67
2018-06-15T02:21:43.856Z,10.13
2018-06-15T02:24:12.449Z,10.30
2018-06-15T02:26:41.053Z,9.07
2018-06-15T02:29:09.610Z,9.93
2018-06-15T02:31:38.287Z,12.20
2018-06-15T02:34:06.897Z,9.47
2018-06-15T02:36:35.542Z,8.93
2018-06-15T02:39:04.592Z,11.03
2018-06-15T02:41:33.179Z,11.60
2018-06-15T02:44:01.768Z,9.63
2018-06-15T02:46:30.377Z,11.63
2018-06-15T02:48:58.967Z,10.83
2018-06-15T02:51:27.591Z,18.30
2018-06-15T02:53:56.201Z,14.23
2018-06-15T02:56:24.942Z,11.87
2018-06-15T02:58:53.559Z,12.93
2018-06-15T03:01:22.130Z,11.40
2018-06-15T03:03:50.733Z,10.87
2018-06-15T03:06:19.332Z,11.40
2018-06-15T03:08:47.959Z,10.93
2018-06-15T03:11:16.664Z,11.17
2018-06-15T03:13:45.276Z,10.57
2018-06-15T03:16:13.906Z,11.73
2018-06-15T03:18:42.533Z,12.17
2018-06-15T03:21:11.126Z,11.13
2018-06-15T03:23:39.703Z,14.10
2018-06-15T03:26:08.283Z,11.57
2018-06-15T03:28:36.902Z,11.23
2018-06-15T03:31:05.494Z,14.27
2018-06-15T03:33:34.072Z,17.57
2018-06-15T03:36:02.752Z,12.60
2018-06-15T03:38:31.330Z,14.93
2018-06-15T03:40:59.942Z,15.63
2018-06-15T03:43:28.662Z,16.07
2018-06-15T03:45:57.349Z,14.57
2018-06-15T03:48:26.042Z,15.90
2018-06-15T03:50:54.626Z,13.67
2018-06-15T03:53:23.215Z,13.33
2018-06-15T03:55:51.852Z,15.40
2018-06-15T03:58:20.410Z,12.03
2018-06-15T04:00:49.111Z,12.57
2018-06-15T04:03:18.235Z,11.40
2018-06-15T04:06:01.570Z,13.07
2018-06-15T04:08:30.112Z,13.90
2018-06-15T04:10:58.746Z,13.17
2018-06-15T04:13:27.323Z,13.27
2018-06-15T04:15:55.903Z,13.27
2018-06-15T04:18:24.486Z,16.53
2018-06-15T04:20:53.102Z,12.77
2018-06-15T04:23:21.715Z,15.13
2018-06-15T04:25:50.358Z,15.03
2018-06-15T04:28:19.303Z,15.53
2018-06-15T04:30:47.935Z,14.60
2018-06-15T04:33:16.547Z,14.80
2018-06-15T04:35:45.162Z,15.20
2018-06-15T04:38:14.052Z,13.67
2018-06-15T04:40:42.795Z,14.87
2018-06-15T04:43:11.414Z,15.23
2018-06-15T04:45:40.082Z,16.13
2018-06-15T04:48:08.852Z,13.83
2018-06-15T04:50:38.343Z,13.63
2018-06-15T04:53:06.946Z,15.03
2018-06-15T04:55:35.551Z,15.13
2018-06-15T04:58:04.142Z,15.10
2018-06-15T05:00:32.740Z,16.80
2018-06-15T05:03:01.324Z,16.70
2018-06-15T05:05:29.930Z,18.13
2018-06-15T05:07:58.527Z,15.07
2018-06-15T05:10:27.196Z,18.00
2018-06-15T05:12:55.803Z,15.23
2018-06-15T05:15:24.418Z,14.60
2018-06-15T05:17:53.071Z,21.47
2018-06-15T05:20:21.639Z,17.63
2018-06-15T05:22:50.236Z,16.37
2018-06-15T05:25:18.864Z,16.70
2018-06-15T05:27:47.528Z,17.03
2018-06-15T05:30:16.196Z,17.10
2018-06-15T05:32:44.881Z,16.60
2018-06-15T05:35:13.486Z,17.60
2018-06-15T05:37:42.074Z,17.20
2018-06-15T05:40:10.717Z,17.13
2018-06-15T05:42:39.325Z,17.27
2018-06-15T05:45:08.043Z,17.83
2018-06-15T05:47:36.651Z,16.40
2018-06-15T05:50:05.278Z,16.47
2018-06-15T05:52:33.860Z,16.87
2018-06-15T05:55:02.410Z,16.53
2018-06-15T05:57:31.026Z,15.57
2018-06-15T05:59:59.594Z,16.33
2018-06-15T06:02:28.173Z,16.42
2018-06-15T06:04:56.813Z,15.40
2018-06-15T06:07:26.277Z,15.80
2018-06-15T06:09:54.941Z,18.50
2018-06-15T06:12:23.548Z,16.10
2018-06-15T06:14:52.221Z,15.00
2018-06-15T06:17:20.823Z,15.43
2018-06-15T06:19:49.511Z,14.13
2018-06-15T06:22:18.154Z,12.68
2018-06-15T06:24:46.794Z,12.53
2018-06-15T06:27:15.375Z,11.55
2018-06-15T06:29:43.959Z,11.10
2018-06-15T06:32:12.548Z,11.48
2018-06-15T06:34:41.191Z,10.85
2018-06-15T06:37:09.807Z,12.88
2018-06-15T06:39:38.478Z,10.28
2018-06-15T06:42:07.136Z,10.65
2018-06-15T06:44:35.747Z,9.85
2018-06-15T06:47:04.322Z,10.38
2018-06-15T06:49:32.931Z,11.22
2018-06-15T06:52:01.506Z,11.65
2018-06-15T06:54:30.194Z,10.08
2018-06-15T06:56:58.784Z,9.50
2018-06-15T06:59:27.377Z,9.38
2018-06-15T07:01:56.052Z,9.08
2018-06-15T07:04:24.610Z,8.85
2018-06-15T07:06:53.207Z,8.68
2018-06-15T07:09:21.903Z,8.40
2018-06-15T07:11:50.518Z,8.30
2018-06-15T07:14:19.149Z,8.90
2018-06-15T07:16:47.834Z,8.63
2018-06-15T07:19:16.432Z,9.23
2018-06-15T07:21:45.050Z,8.10
2018-06-15T07:24:13.644Z,8.30
2018-06-15T07:26:42.207Z,7.78
2018-06-15T07:29:10.758Z,8.23
2018-06-15T07:31:39.308Z,7.55
2018-06-15T07:34:07.863Z,8.30
2018-06-15T07:36:36.433Z,8.18
2018-06-15T07:39:06.861Z,9.58
2018-06-15T07:41:35.508Z,8.50
2018-06-15T07:44:04.236Z,9.40
2018-06-15T07:46:32.819Z,9.88
2018-06-15T07:49:01.397Z,8.88
2018-06-15T07:51:29.964Z,8.90
2018-06-15T07:53:58.580Z,8.80
2018-06-15T07:56:27.148Z,11.43
2018-06-15T07:58:55.830Z,8.55
2018-06-15T08:01:24.402Z,8.50
2018-06-15T08:03:58.003Z,7.72
2018-06-15T08:06:26.575Z,8.43
2018-06-15T08:08:55.353Z,8.05
2018-06-15T08:11:23.947Z,8.03
2018-06-15T08:13:52.534Z,7.67
2018-06-15T08:16:21.136Z,8.10
2018-06-15T08:18:49.688Z,6.95
2018-06-15T08:21:18.319Z,8.30
2018-06-15T08:23:46.978Z,7.80
2018-06-15T08:26:15.535Z,7.92
2018-06-15T08:28:44.174Z,7.83
2018-06-15T08:31:12.774Z,7.75
2018-06-15T08:33:41.530Z,7.78
2018-06-15T08:36:10.094Z,7.97
2018-06-15T08:38:38.790Z,7.22
2018-06-15T08:41:07.648Z,8.30
2018-06-15T08:43:36.208Z,7.58
2018-06-15T08:46:04.820Z,7.75
2018-06-15T08:48:33.413Z,8.28
2018-06-15T08:51:02.046Z,8.03
2018-06-15T08:53:30.659Z,7.67
2018-06-15T08:55:59.218Z,8.45
2018-06-15T08:58:27.783Z,7.08
2018-06-15T09:00:56.351Z,9.78
2018-06-15T09:03:24.944Z,7.67
2018-06-15T09:05:53.560Z,7.92
2018-06-15T09:08:22.214Z,7.65
2018-06-15T09:10:51.930Z,7.20
2018-06-15T09:13:20.476Z,7.20
2018-06-15T09:15:49.040Z,6.90
2018-06-15T09:18:18.662Z,8.65
2018-06-15T09:20:47.365Z,7.30
2018-06-15T09:23:16.020Z,7.50
2018-06-15T09:25:44.631Z,7.90
2018-06-15T09:28:13.170Z,7.00
2018-06-15T09:30:41.765Z,7.17
2018-06-15T09:33:10.351Z,6.60
2018-06-15T09:35:39.495Z,6.47
2018-06-15T09:38:08.102Z,6.97
2018-06-15T09:40:36.702Z,7.03
2018-06-15T09:43:05.294Z,6.60
2018-06-15T09:45:34.040Z,7.67
2018-06-15T09:48:02.692Z,6.62
2018-06-15T09:50:31.250Z,6.97
2018-06-15T09:52:59.875Z,7.00
2018-06-15T09:55:28.975Z,6.53
2018-06-15T09:57:57.616Z,6.90
2018-06-15T10:00:31.397Z,6.80
2018-06-15T10:02:59.986Z,6.70
2018-06-15T10:05:28.640Z,6.25
2018-06-15T10:07:57.237Z,5.70
2018-06-15T10:10:25.806Z,6.75
2018-06-15T10:12:54.394Z,6.30
2018-06-15T10:15:22.933Z,6.28
2018-06-15T10:17:51.627Z,7.17
2018-06-15T10:20:20.307Z,6.30
2018-06-15T10:22:48.900Z,6.40
2018-06-15T10:25:17.554Z,6.37
2018-06-15T10:27:46.213Z,7.12
2018-06-15T10:30:14.807Z,7.47
2018-06-15T10:32:43.683Z,6.77
2018-06-15T10:35:12.323Z,7.83
2018-06-15T10:37:40.893Z,7.60
2018-06-15T10:40:09.544Z,8.55
2018-06-15T10:42:38.114Z,7.97
2018-06-15T10:45:06.779Z,8.53
2018-06-15T10:47:35.353Z,8.03
2018-06-15T10:50:04.040Z,7.25
2018-06-15T10:52:32.666Z,7.15
2018-06-15T10:55:01.349Z,6.95
2018-06-15T10:57:29.950Z,8.40
2018-06-15T10:59:58.523Z,5.40
2018-06-15T11:02:27.248Z,5.60
2018-06-15T11:04:55.834Z,6.00
2018-06-15T11:07:24.468Z,5.70
2018-06-15T11:09:53.128Z,5.87
2018-06-15T11:12:21.745Z,5.62
2018-06-15T11:14:50.492Z,6.33
2018-06-15T11:17:19.082Z,6.40
2018-06-15T11:19:47.727Z,6.08
2018-06-15T11:22:16.274Z,7.13
2018-06-15T11:24:44.899Z,7.13
2018-06-15T11:27:13.517Z,8.40
2018-06-15T11:29:42.130Z,9.53
2018-06-15T11:32:10.821Z,9.93
2018-06-15T11:34:39.445Z,9.70
2018-06-15T11:37:08.140Z,8.37
2018-06-15T11:39:36.805Z,7.77
2018-06-15T11:42:05.486Z,8.33
2018-06-15T11:44:34.147Z,8.30
2018-06-15T11:47:02.736Z,8.73
2018-06-15T11:49:31.356Z,6.80
2018-06-15T11:52:00.058Z,5.80
2018-06-15T11:54:28.720Z,6.00
2018-06-15T11:56:57.319Z,5.10
2018-06-15T11:59:26.171Z,4.63
2018-06-15T12:01:54.782Z,4.60
2018-06-15T12:04:23.334Z,4.70
2018-06-15T12:06:51.908Z,6.67
2018-06-15T12:09:20.497Z,5.57
2018-06-15T12:11:49.084Z,6.47
2018-06-15T12:14:17.710Z,6.70
2018-06-15T12:16:46.298Z,5.43
2018-06-15T12:19:14.998Z,4.30
2018-06-15T12:21:43.542Z,4.67
2018-06-15T12:24:12.103Z,8.83
2018-06-15T12:26:40.705Z,6.70
2018-06-15T12:29:09.362Z,7.03
2018-06-15T12:31:38.576Z,7.63
2018-06-15T12:34:07.280Z,7.33
2018-06-15T12:36:35.889Z,6.90
2018-06-15T12:39:06.511Z,7.07
2018-06-15T12:41:35.119Z,9.17
2018-06-15T12:44:03.746Z,7.70
2018-06-15T12:46:32.339Z,7.00
2018-06-15T12:49:00.927Z,6.97
2018-06-15T12:51:29.507Z,7.17
2018-06-15T12:53:58.162Z,7.63
2018-06-15T12:56:27.038Z,9.33
2018-06-15T12:58:55.613Z,6.90
2018-06-15T13:01:24.173Z,8.23
2018-06-15T13:03:52.792Z,7.20
2018-06-15T13:06:21.337Z,8.37
2018-06-15T13:08:49.931Z,6.80
2018-06-15T13:11:18.595Z,7.50
2018-06-15T13:13:47.182Z,7.40
2018-06-15T13:16:15.787Z,7.50
2018-06-15T13:18:44.363Z,8.67
2018-06-15T13:21:12.933Z,7.53
2018-06-15T13:23:41.582Z,6.70
2018-06-15T13:26:10.132Z,6.53
2018-06-15T13:28:38.776Z,5.83
2018-06-15T13:31:07.550Z,5.20
2018-06-15T13:33:36.097Z,10.90
2018-06-15T13:36:06.039Z,8.40
2018-06-15T13:38:34.620Z,7.23
2018-06-15T13:41:03.325Z,8.40
2018-06-15T13:43:31.891Z,6.40
2018-06-15T13:46:00.485Z,5.80
2018-06-15T13:48:29.155Z,5.57
2018-06-15T13:50:57.833Z,7.97
2018-06-15T13:53:26.495Z,5.50
2018-06-15T13:55:55.043Z,6.43
2018-06-15T13:58:23.632Z,6.57
2018-06-15T14:00:52.246Z,6.90
2018-06-15T14:03:21.088Z,6.60
2018-06-15T14:05:49.751Z,8.10
2018-06-15T14:08:18.358Z,8.03
2018-06-15T14:10:46.950Z,9.77
2018-06-15T14:13:15.771Z,8.20
2018-06-15T14:15:44.328Z,7.40
2018-06-15T14:18:12.882Z,7.07
2018-06-15T14:20:41.550Z,6.53
2018-06-15T14:23:10.553Z,8.47
2018-06-15T14:25:39.140Z,6.80
2018-06-15T14:28:08.421Z,6.63
2018-06-15T14:30:37.073Z,6.97
2018-06-15T14:33:05.686Z,6.17
2018-06-15T14:35:34.326Z,5.93
2018-06-15T14:38:02.891Z,8.67
2018-06-15T14:40:31.825Z,6.13
2018-06-15T14:43:00.376Z,4.90
2018-06-15T14:45:28.919Z,7.53
2018-06-15T14:47:57.495Z,9.03
2018-06-15T14:50:26.035Z,9.33
2018-06-15T14:52:54.688Z,5.10
2018-06-15T14:55:23.295Z,6.20
2018-06-15T14:57:51.866Z,7.37
2018-06-15T15:00:20.463Z,4.80
2018-06-15T15:02:49.119Z,5.27
2018-06-15T15:05:17.775Z,6.93
2018-06-15T15:07:46.455Z,5.80
2018-06-15T15:10:15.057Z,7.33
2018-06-15T15:12:43.623Z,10.37
2018-06-15T15:15:12.216Z,6.03
2018-06-15T15:17:40.820Z,5.70
2018-06-15T15:20:09.432Z,8.10
2018-06-15T15:22:38.083Z,5.03
2018-06-15T15:25:06.722Z,5.07
2018-06-15T15:27:35.403Z,7.60
2018-06-15T15:30:06.123Z,5.40
2018-06-15T15:32:34.690Z,8.80
2018-06-15T15:35:03.677Z,6.60
2018-06-15T15:37:32.251Z,6.57
2018-06-15T15:40:00.853Z,10.03
2018-06-15T15:42:29.433Z,9.50
2018-06-15T15:44:58.112Z,8.27
2018-06-15T15:47:26.701Z,6.97
2018-06-15T15:49:55.310Z,9.50
2018-06-15T15:52:24.022Z,6.67
2018-06-15T15:54:52.631Z,6.83
2018-06-15T15:57:21.476Z,7.27
2018-06-15T15:59:50.082Z,7.80
2018-06-15T16:02:18.733Z,8.70
2018-06-15T16:04:47.636Z,6.77
2018-06-15T16:07:17.288Z,9.23
2018-06-15T16:09:46.152Z,8.30
2018-06-15T16:12:14.772Z,6.83
2018-06-15T16:14:43.393Z,5.77
2018-06-15T16:17:12.506Z,6.00
2018-06-15T16:19:41.459Z,7.87
2018-06-15T16:22:10.934Z,6.00
2018-06-15T16:24:39.540Z,5.93
2018-06-15T16:27:08.336Z,5.67
2018-06-15T16:29:36.926Z,5.37
2018-06-15T16:32:05.605Z,5.70
2018-06-15T16:34:34.261Z,6.17
2018-06-15T16:37:02.911Z,5.00
2018-06-15T16:39:31.463Z,5.40
2018-06-15T16:42:00.092Z,7.47
2018-06-15T16:44:28.714Z,11.97
2018-06-15T16:46:57.335Z,15.93
2018-06-15T16:49:25.936Z,10.87
2018-06-15T16:51:54.991Z,13.67
2018-06-15T16:54:23.609Z,11.23
2018-06-15T16:56:52.469Z,11.50
2018-06-15T16:59:21.087Z,9.80
2018-06-15T17:01:49.679Z,12.27
2018-06-15T17:04:18.292Z,13.47
2018-06-15T17:06:46.958Z,12.37
2018-06-15T17:09:15.547Z,12.87
2018-06-15T17:11:44.138Z,12.13
2018-06-15T17:14:12.721Z,13.80
2018-06-15T17:16:41.315Z,13.40
2018-06-15T17:19:09.970Z,14.33
2018-06-15T17:21:38.582Z,15.17
2018-06-15T17:24:07.204Z,14.70
2018-06-15T17:26:35.808Z,13.87
2018-06-15T17:29:04.806Z,15.77
2018-06-15T17:31:33.436Z,13.57
2018-06-15T17:34:02.039Z,14.33
2018-06-15T17:36:30.760Z,14.13
2018-06-15T17:38:59.327Z,15.17
2018-06-15T17:41:28.201Z,14.67
2018-06-15T17:43:56.802Z,15.47
2018-06-15T17:46:25.737Z,16.27
2018-06-15T17:48:54.535Z,12.50
2018-06-15T17:51:23.156Z,12.43
2018-06-15T17:53:52.194Z,13.13
2018-06-15T17:56:20.860Z,14.53
2018-06-15T17:58:49.740Z,15.40
2018-06-15T18:01:18.360Z,14.30
2018-06-15T18:03:47.141Z,13.00
2018-06-15T18:06:15.875Z,12.27
2018-06-15T18:08:44.458Z,12.93
2018-06-15T18:11:13.426Z,16.90
2018-06-15T18:13:42.080Z,10.77
2018-06-15T18:16:10.746Z,13.83
2018-06-15T18:18:39.315Z,14.27
2018-06-15T18:21:08.087Z,13.83
2018-06-15T18:23:36.714Z,16.40
2018-06-15T18:26:05.406Z,16.00
2018-06-15T18:28:34.046Z,15.87
2018-06-15T18:31:02.643Z,16.07
2018-06-15T18:33:31.587Z,15.63
2018-06-15T18:36:00.289Z,16.47
2018-06-15T18:38:29.250Z,18.63
2018-06-15T18:40:57.861Z,18.00
2018-06-15T18:43:26.662Z,16.17
2018-06-15T18:45:55.716Z,16.10
2018-06-15T18:48:25.974Z,15.80
2018-06-15T18:50:54.789Z,13.17
2018-06-15T18:53:23.452Z,11.73
2018-06-15T18:55:52.043Z,10.50
2018-06-15T18:58:20.983Z,11.90
2018-06-15T19:00:49.624Z,10.50
2018-06-15T19:03:18.258Z,10.87
2018-06-15T19:05:46.914Z,12.83
2018-06-15T19:08:15.503Z,14.17
2018-06-15T19:10:44.447Z,13.90
2018-06-15T19:13:13.077Z,11.77
2018-06-15T19:15:41.856Z,10.70
2018-06-15T19:18:10.450Z,12.17
2018-06-15T19:20:39.178Z,10.40
2018-06-15T19:23:07.904Z,11.40
2018-06-15T19:25:36.833Z,10.10
2018-06-15T19:28:05.643Z,11.07
2018-06-15T19:30:34.278Z,10.87
2018-06-15T19:33:02.900Z,9.40
2018-06-15T19:35:31.754Z,9.90
2018-06-15T19:38:00.540Z,10.03
2018-06-15T19:40:29.288Z,9.77
2018-06-15T19:42:58.072Z,10.03
2018-06-15T19:45:27.111Z,9.10
2018-06-15T19:47:55.891Z,11.30
2018-06-15T19:50:24.495Z,9.43
2018-06-15T19:52:53.166Z,9.27
2018-06-15T19:55:21.834Z,8.77
2018-06-15T19:57:50.415Z,9.90
2018-06-15T20:00:20.259Z,8.80
2018-06-15T20:02:48.926Z,8.43
2018-06-15T20:05:17.535Z,8.57
2018-06-15T20:07:46.126Z,8.20
2018-06-15T20:10:14.726Z,8.80
2018-06-15T20:12:43.332Z,8.57
2018-06-15T20:15:11.939Z,8.63
2018-06-15T20:17:40.528Z,10.20
2018-06-15T20:20:09.182Z,11.40
2018-06-15T20:22:38.156Z,8.20
2018-06-15T20:25:07.521Z,7.70
2018-06-15T20:27:36.249Z,8.50
2018-06-15T20:30:06.475Z,7.87
2018-06-15T20:32:35.050Z,7.83
2018-06-15T20:35:03.672Z,7.47
2018-06-15T20:37:32.312Z,8.20
2018-06-15T20:40:00.947Z,7.70
2018-06-15T20:42:29.570Z,8.10
2018-06-15T20:44:58.177Z,7.43
2018-06-15T20:47:26.797Z,8.23
2018-06-15T20:49:55.552Z,7.43
2018-06-15T20:52:24.155Z,8.57
2018-06-15T20:54:53.122Z,8.47
2018-06-15T20:57:21.750Z,8.37
2018-06-15T20:59:50.396Z,8.30
2018-06-15T21:02:19.184Z,9.30
2018-06-15T21:04:47.783Z,8.10
2018-06-15T21:07:16.408Z,8.93
2018-06-15T21:09:45.047Z,10.10
2018-06-15T21:12:13.655Z,8.70
2018-06-15T21:14:42.680Z,9.13
2018-06-15T21:17:11.330Z,8.50
2018-06-15T21:19:39.961Z,8.13
2018-06-15T21:22:08.539Z,8.97
2018-06-15T21:24:37.112Z,7.93
2018-06-15T21:27:05.793Z,7.93
2018-06-15T21:29:34.384Z,9.57
2018-06-15T21:32:02.989Z,7.83
2018-06-15T21:34:31.658Z,9.23
2018-06-15T21:37:00.247Z,9.50
2018-06-15T21:39:29.822Z,9.77
2018-06-15T21:41:58.439Z,8.63
2018-06-15T21:44:26.994Z,10.90
2018-06-15T21:46:55.607Z,12.03
2018-06-15T21:49:24.146Z,8.87
2018-06-15T21:51:52.741Z,9.17
2018-06-15T21:54:21.323Z,8.70
2018-06-15T21:56:49.986Z,6.80
2018-06-15T21:59:18.650Z,6.83
2018-06-15T22:01:47.323Z,6.87
2018-06-15T22:04:15.893Z,6.90
2018-06-15T22:06:44.455Z,7.47
2018-06-15T22:09:13.056Z,6.90
2018-06-15T22:11:41.639Z,9.73
2018-06-15T22:14:10.206Z,6.87
2018-06-15T22:16:44.019Z,7.33
2018-06-15T22:19:12.624Z,6.33
2018-06-15T22:21:41.208Z,6.23
2018-06-15T22:24:09.810Z,6.17
2018-06-15T22:26:38.412Z,6.33
2018-06-15T22:29:07.050Z,6.70
2018-06-15T22:31:35.719Z,8.10
2018-06-15T22:34:04.329Z,6.13
2018-06-15T22:36:32.931Z,6.93
2018-06-15T22:39:01.528Z,6.70
2018-06-15T22:41:30.150Z,7.37
2018-06-15T22:43:58.779Z,8.23
2018-06-15T22:46:27.328Z,8.43
2018-06-15T22:48:56.026Z,7.23
2018-06-15T22:51:24.602Z,7.63
2018-06-15T22:53:53.166Z,7.70
2018-06-15T22:56:21.755Z,7.50
2018-06-15T22:58:50.377Z,7.73
2018-06-15T23:01:19.040Z,7.40
2018-06-15T23:03:47.711Z,7.70
2018-06-15T23:06:16.375Z,8.23
2018-06-15T23:08:44.926Z,7.60
2018-06-15T23:11:13.551Z,7.60
2018-06-15T23:13:42.138Z,7.87
2018-06-15T23:16:10.743Z,7.70
2018-06-15T23:18:39.299Z,7.13
2018-06-15T23:21:08.004Z,7.43
2018-06-15T23:23:36.595Z,11.40
2018-06-15T23:26:05.215Z,8.40
2018-06-15T23:28:33.770Z,7.37
2018-06-15T23:31:02.357Z,7.70
2018-06-15T23:33:30.931Z,8.07
2018-06-15T23:35:59.502Z,8.67
2018-06-15T23:38:28.137Z,11.13
2018-06-15T23:40:56.762Z,12.27
2018-06-15T23:43:25.363Z,10.27
2018-06-15T23:45:54.286Z,11.77
2018-06-15T23:48:22.867Z,10.57
2018-06-15T23:50:51.475Z,10.57
2018-06-15T23:53:20.123Z,13.70
2018-06-15T23:55:48.700Z,12.37
2018-06-15T23:58:17.327Z,10.17
